sensor_id;sensor_type;location;lat;lon;timestamp;P1;durP1;ratioP1;P2;durP2;ratioP2
14698;SDS011;7439;50.804;4.602;2023-06-04T00:00:29;3.20;;;1.80;;
14698;SDS011;7439;50.804;4.602;2023-06-04T00:02:56;1.90;;;1.70;;
14698;SDS011;7439;50.804;4.602;2023-06-04T00:05:23;5.10;;;2.10;;
14698;SDS011;7439;50.804;4.602;2023-06-04T00:07:50;3.70;;;2.10;;
14698;SDS011;7439;50.804;4.602;2023-06-04T00:10:18;3.00;;;2.20;;
14698;SDS011;7439;50.804;4.602;2023-06-04T00:12:45;1.83;;;1.73;;
14698;SDS011;7439;50.804;4.602;2023-06-04T00:15:14;2.63;;;2.10;;
14698;SDS011;7439;50.804;4.602;2023-06-04T00:17:41;6.27;;;2.13;;
14698;SDS011;7439;50.804;4.602;2023-06-04T00:20:09;4.53;;;2.27;;
14698;SDS011;7439;50.804;4.602;2023-06-04T00:22:37;2.93;;;2.10;;
14698;SDS011;7439;50.804;4.602;2023-06-04T00:25:07;2.37;;;1.90;;
14698;SDS011;7439;50.804;4.602;2023-06-04T00:27:34;2.23;;;1.97;;
14698;SDS011;7439;50.804;4.602;2023-06-04T00:30:01;2.20;;;2.00;;
14698;SDS011;7439;50.804;4.602;2023-06-04T00:32:30;4.10;;;1.77;;
14698;SDS011;7439;50.804;4.602;2023-06-04T00:34:58;3.03;;;2.03;;
14698;SDS011;7439;50.804;4.602;2023-06-04T00:37:27;2.40;;;2.10;;
14698;SDS011;7439;50.804;4.602;2023-06-04T00:39:55;2.30;;;1.90;;
14698;SDS011;7439;50.804;4.602;2023-06-04T00:42:23;2.47;;;2.10;;
14698;SDS011;7439;50.804;4.602;2023-06-04T00:44:50;2.33;;;2.00;;
14698;SDS011;7439;50.804;4.602;2023-06-04T00:47:17;6.43;;;2.83;;
14698;SDS011;7439;50.804;4.602;2023-06-04T00:49:47;5.83;;;2.03;;
14698;SDS011;7439;50.804;4.602;2023-06-04T00:52:15;3.93;;;2.33;;
14698;SDS011;7439;50.804;4.602;2023-06-04T00:54:42;2.40;;;2.20;;
14698;SDS011;7439;50.804;4.602;2023-06-04T00:57:09;3.23;;;2.27;;
14698;SDS011;7439;50.804;4.602;2023-06-04T00:59:37;2.10;;;1.80;;
14698;SDS011;7439;50.804;4.602;2023-06-04T01:02:08;4.47;;;2.20;;
14698;SDS011;7439;50.804;4.602;2023-06-04T01:04:41;2.50;;;2.30;;
14698;SDS011;7439;50.804;4.602;2023-06-04T01:07:14;1.97;;;1.87;;
14698;SDS011;7439;50.804;4.602;2023-06-04T01:09:44;2.40;;;1.77;;
14698;SDS011;7439;50.804;4.602;2023-06-04T01:12:12;4.30;;;2.20;;
14698;SDS011;7439;50.804;4.602;2023-06-04T01:14:40;4.20;;;2.77;;
14698;SDS011;7439;50.804;4.602;2023-06-04T01:17:09;3.73;;;2.23;;
14698;SDS011;7439;50.804;4.602;2023-06-04T01:19:53;2.27;;;2.07;;
14698;SDS011;7439;50.804;4.602;2023-06-04T01:22:35;3.10;;;2.20;;
14698;SDS011;7439;50.804;4.602;2023-06-04T01:25:05;2.93;;;2.07;;
14698;SDS011;7439;50.804;4.602;2023-06-04T01:27:46;2.40;;;1.80;;
14698;SDS011;7439;50.804;4.602;2023-06-04T01:30:15;3.17;;;2.47;;
14698;SDS011;7439;50.804;4.602;2023-06-04T01:32:43;2.80;;;2.10;;
14698;SDS011;7439;50.804;4.602;2023-06-04T01:35:12;2.40;;;2.03;;
14698;SDS011;7439;50.804;4.602;2023-06-04T01:37:41;2.50;;;2.20;;
14698;SDS011;7439;50.804;4.602;2023-06-04T01:40:08;2.77;;;2.50;;
14698;SDS011;7439;50.804;4.602;2023-06-04T01:42:36;2.83;;;2.47;;
14698;SDS011;7439;50.804;4.602;2023-06-04T01:45:03;4.37;;;2.33;;
14698;SDS011;7439;50.804;4.602;2023-06-04T01:47:32;3.83;;;2.10;;
14698;SDS011;7439;50.804;4.602;2023-06-04T01:50:00;2.10;;;1.90;;
14698;SDS011;7439;50.804;4.602;2023-06-04T01:52:27;6.47;;;3.33;;
14698;SDS011;7439;50.804;4.602;2023-06-04T01:54:56;2.30;;;1.83;;
14698;SDS011;7439;50.804;4.602;2023-06-04T01:57:30;2.63;;;1.93;;
14698;SDS011;7439;50.804;4.602;2023-06-04T01:59:57;4.27;;;2.33;;
14698;SDS011;7439;50.804;4.602;2023-06-04T02:02:24;2.63;;;2.37;;
14698;SDS011;7439;50.804;4.602;2023-06-04T02:04:51;2.70;;;2.03;;
14698;SDS011;7439;50.804;4.602;2023-06-04T02:07:19;4.67;;;2.07;;
14698;SDS011;7439;50.804;4.602;2023-06-04T02:09:46;2.07;;;1.93;;
14698;SDS011;7439;50.804;4.602;2023-06-04T02:12:15;3.10;;;2.40;;
14698;SDS011;7439;50.804;4.602;2023-06-04T02:14:43;2.23;;;2.07;;
14698;SDS011;7439;50.804;4.602;2023-06-04T02:17:12;2.87;;;2.20;;
14698;SDS011;7439;50.804;4.602;2023-06-04T02:19:41;2.70;;;1.97;;
14698;SDS011;7439;50.804;4.602;2023-06-04T02:22:10;2.60;;;2.10;;
14698;SDS011;7439;50.804;4.602;2023-06-04T02:24:37;2.80;;;2.60;;
14698;SDS011;7439;50.804;4.602;2023-06-04T02:27:08;3.33;;;2.20;;
14698;SDS011;7439;50.804;4.602;2023-06-04T02:29:37;3.13;;;2.13;;
14698;SDS011;7439;50.804;4.602;2023-06-04T02:32:05;2.40;;;2.20;;
14698;SDS011;7439;50.804;4.602;2023-06-04T02:34:33;3.73;;;2.47;;
14698;SDS011;7439;50.804;4.602;2023-06-04T02:37:01;3.23;;;2.50;;
14698;SDS011;7439;50.804;4.602;2023-06-04T02:39:29;2.87;;;2.47;;
14698;SDS011;7439;50.804;4.602;2023-06-04T02:41:56;2.77;;;2.33;;
14698;SDS011;7439;50.804;4.602;2023-06-04T02:44:24;2.87;;;1.97;;
14698;SDS011;7439;50.804;4.602;2023-06-04T02:46:52;2.83;;;2.63;;
14698;SDS011;7439;50.804;4.602;2023-06-04T02:49:19;3.73;;;2.30;;
14698;SDS011;7439;50.804;4.602;2023-06-04T02:51:47;3.07;;;2.40;;
14698;SDS011;7439;50.804;4.602;2023-06-04T02:54:15;4.13;;;2.33;;
14698;SDS011;7439;50.804;4.602;2023-06-04T02:56:42;3.00;;;2.43;;
14698;SDS011;7439;50.804;4.602;2023-06-04T02:59:09;2.57;;;2.37;;
14698;SDS011;7439;50.804;4.602;2023-06-04T03:01:39;5.03;;;2.10;;
14698;SDS011;7439;50.804;4.602;2023-06-04T03:04:08;3.67;;;2.53;;
14698;SDS011;7439;50.804;4.602;2023-06-04T03:06:39;3.90;;;2.33;;
14698;SDS011;7439;50.804;4.602;2023-06-04T03:09:09;4.43;;;2.20;;
14698;SDS011;7439;50.804;4.602;2023-06-04T03:11:37;2.30;;;2.10;;
14698;SDS011;7439;50.804;4.602;2023-06-04T03:14:05;5.37;;;2.43;;
14698;SDS011;7439;50.804;4.602;2023-06-04T03:16:32;3.07;;;2.43;;
14698;SDS011;7439;50.804;4.602;2023-06-04T03:19:00;4.83;;;2.60;;
14698;SDS011;7439;50.804;4.602;2023-06-04T03:21:28;3.90;;;2.83;;
14698;SDS011;7439;50.804;4.602;2023-06-04T03:23:55;5.63;;;2.50;;
14698;SDS011;7439;50.804;4.602;2023-06-04T03:26:23;3.17;;;2.37;;
14698;SDS011;7439;50.804;4.602;2023-06-04T03:28:51;4.37;;;3.20;;
14698;SDS011;7439;50.804;4.602;2023-06-04T03:31:19;3.27;;;2.57;;
14698;SDS011;7439;50.804;4.602;2023-06-04T03:33:46;4.00;;;2.83;;
14698;SDS011;7439;50.804;4.602;2023-06-04T03:36:13;3.33;;;2.67;;
14698;SDS011;7439;50.804;4.602;2023-06-04T03:38:42;3.30;;;2.90;;
14698;SDS011;7439;50.804;4.602;2023-06-04T03:41:12;3.17;;;2.70;;
14698;SDS011;7439;50.804;4.602;2023-06-04T03:43:39;4.40;;;2.50;;
14698;SDS011;7439;50.804;4.602;2023-06-04T03:46:07;5.37;;;2.87;;
14698;SDS011;7439;50.804;4.602;2023-06-04T03:48:34;4.77;;;2.77;;
14698;SDS011;7439;50.804;4.602;2023-06-04T03:51:01;5.87;;;2.77;;
14698;SDS011;7439;50.804;4.602;2023-06-04T03:53:28;3.33;;;3.03;;
14698;SDS011;7439;50.804;4.602;2023-06-04T03:55:57;4.73;;;2.73;;
14698;SDS011;7439;50.804;4.602;2023-06-04T03:58:24;2.70;;;2.50;;
14698;SDS011;7439;50.804;4.602;2023-06-04T04:00:54;6.17;;;2.80;;
14698;SDS011;7439;50.804;4.602;2023-06-04T04:03:22;3.67;;;2.83;;
14698;SDS011;7439;50.804;4.602;2023-06-04T04:05:51;3.93;;;3.03;;
14698;SDS011;7439;50.804;4.602;2023-06-04T04:08:18;4.07;;;2.87;;
14698;SDS011;7439;50.804;4.602;2023-06-04T04:10:46;3.47;;;2.97;;
14698;SDS011;7439;50.804;4.602;2023-06-04T04:13:15;6.20;;;3.07;;
14698;SDS011;7439;50.804;4.602;2023-06-04T04:15:42;3.23;;;2.93;;
14698;SDS011;7439;50.804;4.602;2023-06-04T04:18:09;3.87;;;2.83;;
14698;SDS011;7439;50.804;4.602;2023-06-04T04:20:36;5.87;;;3.10;;
14698;SDS011;7439;50.804;4.602;2023-06-04T04:23:04;3.10;;;2.67;;
14698;SDS011;7439;50.804;4.602;2023-06-04T04:25:33;3.83;;;2.60;;
14698;SDS011;7439;50.804;4.602;2023-06-04T04:28:01;3.83;;;2.73;;
14698;SDS011;7439;50.804;4.602;2023-06-04T04:30:33;3.83;;;2.83;;
14698;SDS011;7439;50.804;4.602;2023-06-04T04:33:00;3.27;;;2.83;;
14698;SDS011;7439;50.804;4.602;2023-06-04T04:35:30;3.00;;;2.70;;
14698;SDS011;7439;50.804;4.602;2023-06-04T04:37:58;3.70;;;2.63;;
14698;SDS011;7439;50.804;4.602;2023-06-04T04:40:28;3.50;;;2.60;;
14698;SDS011;7439;50.804;4.602;2023-06-04T04:42:55;3.03;;;2.77;;
14698;SDS011;7439;50.804;4.602;2023-06-04T04:45:24;3.40;;;2.57;;
14698;SDS011;7439;50.804;4.602;2023-06-04T04:47:53;3.93;;;3.10;;
14698;SDS011;7439;50.804;4.602;2023-06-04T04:50:20;3.07;;;2.77;;
14698;SDS011;7439;50.804;4.602;2023-06-04T04:52:47;5.53;;;2.70;;
14698;SDS011;7439;50.804;4.602;2023-06-04T04:55:14;6.57;;;3.10;;
14698;SDS011;7439;50.804;4.602;2023-06-04T04:57:41;4.83;;;2.93;;
14698;SDS011;7439;50.804;4.602;2023-06-04T05:00:09;7.20;;;3.03;;
14698;SDS011;7439;50.804;4.602;2023-06-04T05:02:38;10.87;;;3.03;;
14698;SDS011;7439;50.804;4.602;2023-06-04T05:05:07;3.37;;;2.90;;
14698;SDS011;7439;50.804;4.602;2023-06-04T05:07:35;6.57;;;3.37;;
14698;SDS011;7439;50.804;4.602;2023-06-04T05:10:03;6.83;;;3.20;;
14698;SDS011;7439;50.804;4.602;2023-06-04T05:12:30;3.70;;;2.80;;
14698;SDS011;7439;50.804;4.602;2023-06-04T05:14:58;3.97;;;2.67;;
14698;SDS011;7439;50.804;4.602;2023-06-04T05:17:25;2.70;;;2.50;;
14698;SDS011;7439;50.804;4.602;2023-06-04T05:19:55;3.17;;;2.73;;
14698;SDS011;7439;50.804;4.602;2023-06-04T05:22:32;4.93;;;3.00;;
14698;SDS011;7439;50.804;4.602;2023-06-04T05:25:01;3.57;;;3.27;;
14698;SDS011;7439;50.804;4.602;2023-06-04T05:27:29;4.03;;;3.00;;
14698;SDS011;7439;50.804;4.602;2023-06-04T05:29:56;2.97;;;2.70;;
14698;SDS011;7439;50.804;4.602;2023-06-04T05:32:23;4.23;;;2.90;;
14698;SDS011;7439;50.804;4.602;2023-06-04T05:34:53;3.13;;;2.83;;
14698;SDS011;7439;50.804;4.602;2023-06-04T05:37:22;3.27;;;2.97;;
14698;SDS011;7439;50.804;4.602;2023-06-04T05:39:50;3.50;;;2.60;;
14698;SDS011;7439;50.804;4.602;2023-06-04T05:42:17;3.33;;;2.90;;
14698;SDS011;7439;50.804;4.602;2023-06-04T05:44:45;4.37;;;2.73;;
14698;SDS011;7439;50.804;4.602;2023-06-04T05:47:13;3.73;;;2.87;;
14698;SDS011;7439;50.804;4.602;2023-06-04T05:49:42;3.30;;;3.00;;
14698;SDS011;7439;50.804;4.602;2023-06-04T05:52:09;4.43;;;2.90;;
14698;SDS011;7439;50.804;4.602;2023-06-04T05:54:36;3.17;;;2.60;;
14698;SDS011;7439;50.804;4.602;2023-06-04T05:57:05;3.20;;;2.90;;
14698;SDS011;7439;50.804;4.602;2023-06-04T05:59:32;5.43;;;3.10;;
14698;SDS011;7439;50.804;4.602;2023-06-04T06:01:59;3.40;;;3.10;;
14698;SDS011;7439;50.804;4.602;2023-06-04T06:04:27;4.73;;;2.77;;
14698;SDS011;7439;50.804;4.602;2023-06-04T06:06:55;5.30;;;3.30;;
14698;SDS011;7439;50.804;4.602;2023-06-04T06:09:22;4.73;;;3.07;;
14698;SDS011;7439;50.804;4.602;2023-06-04T06:11:49;6.13;;;3.10;;
14698;SDS011;7439;50.804;4.602;2023-06-04T06:14:18;4.20;;;3.13;;
14698;SDS011;7439;50.804;4.602;2023-06-04T06:16:45;3.80;;;2.80;;
14698;SDS011;7439;50.804;4.602;2023-06-04T06:19:13;4.17;;;3.03;;
14698;SDS011;7439;50.804;4.602;2023-06-04T06:21:40;4.60;;;2.77;;
14698;SDS011;7439;50.804;4.602;2023-06-04T06:24:07;3.27;;;2.87;;
14698;SDS011;7439;50.804;4.602;2023-06-04T06:26:34;5.43;;;3.13;;
14698;SDS011;7439;50.804;4.602;2023-06-04T06:29:02;3.83;;;3.17;;
14698;SDS011;7439;50.804;4.602;2023-06-04T06:31:31;6.03;;;2.40;;
14698;SDS011;7439;50.804;4.602;2023-06-04T06:33:58;5.80;;;2.57;;
14698;SDS011;7439;50.804;4.602;2023-06-04T06:36:25;6.43;;;2.90;;
14698;SDS011;7439;50.804;4.602;2023-06-04T06:38:54;4.93;;;2.57;;
14698;SDS011;7439;50.804;4.602;2023-06-04T06:41:21;3.93;;;3.53;;
14698;SDS011;7439;50.804;4.602;2023-06-04T06:43:48;4.27;;;2.97;;
14698;SDS011;7439;50.804;4.602;2023-06-04T06:46:16;4.83;;;2.83;;
14698;SDS011;7439;50.804;4.602;2023-06-04T06:48:44;5.13;;;2.80;;
14698;SDS011;7439;50.804;4.602;2023-06-04T06:51:13;3.80;;;2.87;;
14698;SDS011;7439;50.804;4.602;2023-06-04T06:53:40;3.53;;;2.70;;
14698;SDS011;7439;50.804;4.602;2023-06-04T06:56:08;3.37;;;3.07;;
14698;SDS011;7439;50.804;4.602;2023-06-04T06:58:35;4.00;;;2.80;;
14698;SDS011;7439;50.804;4.602;2023-06-04T07:01:02;2.97;;;2.60;;
14698;SDS011;7439;50.804;4.602;2023-06-04T07:03:31;4.10;;;3.03;;
14698;SDS011;7439;50.804;4.602;2023-06-04T07:05:59;2.83;;;2.53;;
14698;SDS011;7439;50.804;4.602;2023-06-04T07:08:26;4.07;;;2.53;;
14698;SDS011;7439;50.804;4.602;2023-06-04T07:10:54;3.20;;;2.23;;
14698;SDS011;7439;50.804;4.602;2023-06-04T07:13:21;3.30;;;2.40;;
14698;SDS011;7439;50.804;4.602;2023-06-04T07:15:49;3.77;;;2.23;;
14698;SDS011;7439;50.804;4.602;2023-06-04T07:18:16;2.80;;;2.20;;
14698;SDS011;7439;50.804;4.602;2023-06-04T07:20:43;2.63;;;1.90;;
14698;SDS011;7439;50.804;4.602;2023-06-04T07:23:12;3.20;;;2.30;;
14698;SDS011;7439;50.804;4.602;2023-06-04T07:25:39;2.87;;;2.07;;
14698;SDS011;7439;50.804;4.602;2023-06-04T07:28:06;2.70;;;2.47;;
14698;SDS011;7439;50.804;4.602;2023-06-04T07:30:33;3.60;;;2.10;;
14698;SDS011;7439;50.804;4.602;2023-06-04T07:33:04;2.50;;;2.17;;
14698;SDS011;7439;50.804;4.602;2023-06-04T07:35:31;3.10;;;2.20;;
14698;SDS011;7439;50.804;4.602;2023-06-04T07:37:58;5.37;;;2.07;;
14698;SDS011;7439;50.804;4.602;2023-06-04T07:40:27;2.97;;;2.23;;
14698;SDS011;7439;50.804;4.602;2023-06-04T07:42:54;2.23;;;1.93;;
14698;SDS011;7439;50.804;4.602;2023-06-04T07:45:21;6.87;;;2.50;;
14698;SDS011;7439;50.804;4.602;2023-06-04T07:47:48;2.20;;;2.00;;
14698;SDS011;7439;50.804;4.602;2023-06-04T07:50:16;4.47;;;1.70;;
14698;SDS011;7439;50.804;4.602;2023-06-04T07:52:43;2.10;;;1.90;;
14698;SDS011;7439;50.804;4.602;2023-06-04T07:55:10;2.30;;;1.93;;
14698;SDS011;7439;50.804;4.602;2023-06-04T07:57:39;3.33;;;2.20;;
14698;SDS011;7439;50.804;4.602;2023-06-04T08:00:07;3.40;;;2.07;;
14698;SDS011;7439;50.804;4.602;2023-06-04T08:02:36;2.00;;;1.80;;
14698;SDS011;7439;50.804;4.602;2023-06-04T08:05:04;1.93;;;1.73;;
14698;SDS011;7439;50.804;4.602;2023-06-04T08:07:31;2.03;;;1.83;;
14698;SDS011;7439;50.804;4.602;2023-06-04T08:09:58;2.10;;;1.60;;
14698;SDS011;7439;50.804;4.602;2023-06-04T08:12:28;4.40;;;2.00;;
14698;SDS011;7439;50.804;4.602;2023-06-04T08:14:57;2.07;;;1.70;;
14698;SDS011;7439;50.804;4.602;2023-06-04T08:17:24;2.43;;;1.80;;
14698;SDS011;7439;50.804;4.602;2023-06-04T08:19:51;3.63;;;1.83;;
14698;SDS011;7439;50.804;4.602;2023-06-04T08:22:19;2.23;;;1.60;;
14698;SDS011;7439;50.804;4.602;2023-06-04T08:24:47;2.83;;;1.80;;
14698;SDS011;7439;50.804;4.602;2023-06-04T08:27:15;3.60;;;2.00;;
14698;SDS011;7439;50.804;4.602;2023-06-04T08:29:42;2.20;;;1.70;;
14698;SDS011;7439;50.804;4.602;2023-06-04T08:32:11;2.10;;;1.83;;
14698;SDS011;7439;50.804;4.602;2023-06-04T08:34:41;2.27;;;1.80;;
14698;SDS011;7439;50.804;4.602;2023-06-04T08:37:08;2.70;;;1.80;;
14698;SDS011;7439;50.804;4.602;2023-06-04T08:39:35;2.47;;;1.90;;
14698;SDS011;7439;50.804;4.602;2023-06-04T08:42:04;3.67;;;1.70;;
14698;SDS011;7439;50.804;4.602;2023-06-04T08:44:33;2.70;;;1.93;;
14698;SDS011;7439;50.804;4.602;2023-06-04T08:47:02;2.23;;;1.83;;
14698;SDS011;7439;50.804;4.602;2023-06-04T08:49:33;1.80;;;1.70;;
14698;SDS011;7439;50.804;4.602;2023-06-04T08:52:01;5.67;;;1.70;;
14698;SDS011;7439;50.804;4.602;2023-06-04T08:54:29;3.37;;;1.77;;
14698;SDS011;7439;50.804;4.602;2023-06-04T08:56:56;1.90;;;1.70;;
14698;SDS011;7439;50.804;4.602;2023-06-04T08:59:25;3.27;;;1.63;;
14698;SDS011;7439;50.804;4.602;2023-06-04T09:01:54;2.73;;;1.70;;
14698;SDS011;7439;50.804;4.602;2023-06-04T09:04:22;3.43;;;2.07;;
14698;SDS011;7439;50.804;4.602;2023-06-04T09:06:51;1.80;;;1.70;;
14698;SDS011;7439;50.804;4.602;2023-06-04T09:09:20;2.13;;;1.60;;
14698;SDS011;7439;50.804;4.602;2023-06-04T09:11:50;4.40;;;2.20;;
14698;SDS011;7439;50.804;4.602;2023-06-04T09:14:18;2.13;;;1.93;;
14698;SDS011;7439;50.804;4.602;2023-06-04T09:16:46;3.53;;;1.97;;
14698;SDS011;7439;50.804;4.602;2023-06-04T09:19:18;2.77;;;2.13;;
14698;SDS011;7439;50.804;4.602;2023-06-04T09:21:49;2.70;;;2.17;;
14698;SDS011;7439;50.804;4.602;2023-06-04T09:24:21;1.67;;;1.57;;
14698;SDS011;7439;50.804;4.602;2023-06-04T09:26:49;3.63;;;1.93;;
14698;SDS011;7439;50.804;4.602;2023-06-04T09:29:20;3.10;;;2.00;;
14698;SDS011;7439;50.804;4.602;2023-06-04T09:31:56;3.17;;;1.80;;
14698;SDS011;7439;50.804;4.602;2023-06-04T09:34:26;1.93;;;1.50;;
14698;SDS011;7439;50.804;4.602;2023-06-04T09:36:56;1.70;;;1.60;;
14698;SDS011;7439;50.804;4.602;2023-06-04T09:39:23;2.27;;;1.73;;
14698;SDS011;7439;50.804;4.602;2023-06-04T09:41:58;1.90;;;1.80;;
14698;SDS011;7439;50.804;4.602;2023-06-04T09:44:26;3.47;;;1.93;;
14698;SDS011;7439;50.804;4.602;2023-06-04T09:46:54;1.93;;;1.80;;
14698;SDS011;7439;50.804;4.602;2023-06-04T09:49:22;3.23;;;2.03;;
14698;SDS011;7439;50.804;4.602;2023-06-04T09:51:50;2.23;;;2.03;;
14698;SDS011;7439;50.804;4.602;2023-06-04T09:54:18;1.93;;;1.73;;
14698;SDS011;7439;50.804;4.602;2023-06-04T09:56:46;2.30;;;1.73;;
14698;SDS011;7439;50.804;4.602;2023-06-04T09:59:13;1.93;;;1.73;;
14698;SDS011;7439;50.804;4.602;2023-06-04T10:01:40;3.07;;;1.90;;
14698;SDS011;7439;50.804;4.602;2023-06-04T10:04:08;43.07;;;3.70;;
14698;SDS011;7439;50.804;4.602;2023-06-04T10:06:37;3.03;;;1.80;;
14698;SDS011;7439;50.804;4.602;2023-06-04T10:09:06;3.97;;;2.20;;
14698;SDS011;7439;50.804;4.602;2023-06-04T10:11:36;2.47;;;1.50;;
14698;SDS011;7439;50.804;4.602;2023-06-04T10:14:09;2.40;;;1.90;;
14698;SDS011;7439;50.804;4.602;2023-06-04T10:16:41;2.83;;;1.60;;
14698;SDS011;7439;50.804;4.602;2023-06-04T10:19:09;2.40;;;1.80;;
14698;SDS011;7439;50.804;4.602;2023-06-04T10:21:37;2.00;;;1.90;;
14698;SDS011;7439;50.804;4.602;2023-06-04T10:24:05;2.50;;;1.63;;
14698;SDS011;7439;50.804;4.602;2023-06-04T10:26:32;3.90;;;2.00;;
14698;SDS011;7439;50.804;4.602;2023-06-04T10:29:02;3.13;;;1.77;;
14698;SDS011;7439;50.804;4.602;2023-06-04T10:31:29;1.77;;;1.67;;
14698;SDS011;7439;50.804;4.602;2023-06-04T10:33:57;3.07;;;1.70;;
14698;SDS011;7439;50.804;4.602;2023-06-04T10:36:24;4.33;;;1.70;;
14698;SDS011;7439;50.804;4.602;2023-06-04T10:38:54;1.57;;;1.47;;
14698;SDS011;7439;50.804;4.602;2023-06-04T10:41:22;2.97;;;1.50;;
14698;SDS011;7439;50.804;4.602;2023-06-04T10:43:50;2.10;;;1.90;;
14698;SDS011;7439;50.804;4.602;2023-06-04T10:46:37;2.93;;;1.57;;
14698;SDS011;7439;50.804;4.602;2023-06-04T10:49:05;3.13;;;1.77;;
14698;SDS011;7439;50.804;4.602;2023-06-04T10:51:33;1.50;;;1.37;;
14698;SDS011;7439;50.804;4.602;2023-06-04T10:54:02;2.53;;;1.80;;
14698;SDS011;7439;50.804;4.602;2023-06-04T10:56:30;2.27;;;1.83;;
14698;SDS011;7439;50.804;4.602;2023-06-04T10:58:59;4.97;;;1.77;;
14698;SDS011;7439;50.804;4.602;2023-06-04T11:01:28;1.77;;;1.60;;
14698;SDS011;7439;50.804;4.602;2023-06-04T11:03:57;3.07;;;1.60;;
14698;SDS011;7439;50.804;4.602;2023-06-04T11:06:24;3.23;;;1.70;;
14698;SDS011;7439;50.804;4.602;2023-06-04T11:09:01;2.83;;;1.80;;
14698;SDS011;7439;50.804;4.602;2023-06-04T11:11:29;1.53;;;1.33;;
14698;SDS011;7439;50.804;4.602;2023-06-04T11:14:06;2.20;;;1.50;;
14698;SDS011;7439;50.804;4.602;2023-06-04T11:16:36;1.60;;;1.40;;
14698;SDS011;7439;50.804;4.602;2023-06-04T11:19:03;2.30;;;1.40;;
14698;SDS011;7439;50.804;4.602;2023-06-04T11:21:30;2.27;;;1.70;;
14698;SDS011;7439;50.804;4.602;2023-06-04T11:24:01;1.67;;;1.57;;
14698;SDS011;7439;50.804;4.602;2023-06-04T11:26:30;2.50;;;1.53;;
14698;SDS011;7439;50.804;4.602;2023-06-04T11:28:58;2.67;;;1.70;;
14698;SDS011;7439;50.804;4.602;2023-06-04T11:31:25;1.93;;;1.73;;
14698;SDS011;7439;50.804;4.602;2023-06-04T11:33:54;1.50;;;1.40;;
14698;SDS011;7439;50.804;4.602;2023-06-04T11:36:24;2.60;;;1.70;;
14698;SDS011;7439;50.804;4.602;2023-06-04T11:38:55;2.20;;;1.77;;
14698;SDS011;7439;50.804;4.602;2023-06-04T11:41:23;2.30;;;1.70;;
14698;SDS011;7439;50.804;4.602;2023-06-04T11:43:51;1.50;;;1.40;;
14698;SDS011;7439;50.804;4.602;2023-06-04T11:46:18;2.70;;;1.70;;
14698;SDS011;7439;50.804;4.602;2023-06-04T11:48:45;2.60;;;1.77;;
14698;SDS011;7439;50.804;4.602;2023-06-04T11:51:14;2.35;;;1.80;;
14698;SDS011;7439;50.804;4.602;2023-06-04T11:53:42;1.77;;;1.67;;
14698;SDS011;7439;50.804;4.602;2023-06-04T11:56:09;2.80;;;1.65;;
14698;SDS011;7439;50.804;4.602;2023-06-04T11:58:36;2.65;;;1.70;;
14698;SDS011;7439;50.804;4.602;2023-06-04T12:01:05;3.55;;;1.55;;
14698;SDS011;7439;50.804;4.602;2023-06-04T12:03:34;1.83;;;1.67;;
14698;SDS011;7439;50.804;4.602;2023-06-04T12:06:10;2.03;;;1.77;;
14698;SDS011;7439;50.804;4.602;2023-06-04T12:08:48;2.67;;;1.70;;
14698;SDS011;7439;50.804;4.602;2023-06-04T12:11:23;2.20;;;1.70;;
14698;SDS011;7439;50.804;4.602;2023-06-04T12:13:53;3.07;;;2.00;;
14698;SDS011;7439;50.804;4.602;2023-06-04T12:16:21;2.50;;;2.00;;
14698;SDS011;7439;50.804;4.602;2023-06-04T12:18:49;3.07;;;1.53;;
14698;SDS011;7439;50.804;4.602;2023-06-04T12:21:17;1.90;;;1.70;;
14698;SDS011;7439;50.804;4.602;2023-06-04T12:23:48;2.50;;;1.73;;
14698;SDS011;7439;50.804;4.602;2023-06-04T12:26:21;2.50;;;1.80;;
14698;SDS011;7439;50.804;4.602;2023-06-04T12:28:59;4.40;;;1.55;;
14698;SDS011;7439;50.804;4.602;2023-06-04T12:31:26;2.57;;;1.70;;
14698;SDS011;7439;50.804;4.602;2023-06-04T12:34:00;1.87;;;1.73;;
14698;SDS011;7439;50.804;4.602;2023-06-04T12:36:28;2.37;;;1.90;;
14698;SDS011;7439;50.804;4.602;2023-06-04T12:38:58;2.90;;;2.07;;
14698;SDS011;7439;50.804;4.602;2023-06-04T12:41:29;1.57;;;1.40;;
14698;SDS011;7439;50.804;4.602;2023-06-04T12:44:00;1.80;;;1.70;;
14698;SDS011;7439;50.804;4.602;2023-06-04T12:46:28;2.37;;;1.53;;
14698;SDS011;7439;50.804;4.602;2023-06-04T12:48:55;2.03;;;1.87;;
14698;SDS011;7439;50.804;4.602;2023-06-04T12:51:22;4.00;;;1.60;;
14698;SDS011;7439;50.804;4.602;2023-06-04T12:53:49;2.27;;;1.60;;
14698;SDS011;7439;50.804;4.602;2023-06-04T12:56:19;2.03;;;1.83;;
14698;SDS011;7439;50.804;4.602;2023-06-04T12:58:47;3.00;;;1.90;;
14698;SDS011;7439;50.804;4.602;2023-06-04T13:01:14;2.87;;;1.90;;
14698;SDS011;7439;50.804;4.602;2023-06-04T13:03:42;1.83;;;1.50;;
14698;SDS011;7439;50.804;4.602;2023-06-04T13:06:09;2.57;;;1.77;;
14698;SDS011;7439;50.804;4.602;2023-06-04T13:08:36;2.30;;;2.00;;
14698;SDS011;7439;50.804;4.602;2023-06-04T13:11:03;2.37;;;1.80;;
14698;SDS011;7439;50.804;4.602;2023-06-04T13:13:33;4.53;;;1.80;;
14698;SDS011;7439;50.804;4.602;2023-06-04T13:16:02;2.23;;;2.00;;
14698;SDS011;7439;50.804;4.602;2023-06-04T13:18:29;2.83;;;1.70;;
14698;SDS011;7439;50.804;4.602;2023-06-04T13:20:56;2.30;;;1.70;;
14698;SDS011;7439;50.804;4.602;2023-06-04T13:23:23;3.80;;;1.93;;
14698;SDS011;7439;50.804;4.602;2023-06-04T13:25:50;2.27;;;1.70;;
14698;SDS011;7439;50.804;4.602;2023-06-04T13:28:18;2.17;;;1.60;;
14698;SDS011;7439;50.804;4.602;2023-06-04T13:30:46;2.88;;;1.90;;
14698;SDS011;7439;50.804;4.602;2023-06-04T13:33:15;2.10;;;1.77;;
14698;SDS011;7439;50.804;4.602;2023-06-04T13:35:44;3.53;;;1.70;;
14698;SDS011;7439;50.804;4.602;2023-06-04T13:38:11;1.97;;;1.57;;
14698;SDS011;7439;50.804;4.602;2023-06-04T13:40:38;2.83;;;1.87;;
14698;SDS011;7439;50.804;4.602;2023-06-04T13:43:05;2.53;;;1.70;;
14698;SDS011;7439;50.804;4.602;2023-06-04T13:45:33;4.40;;;1.90;;
14698;SDS011;7439;50.804;4.602;2023-06-04T13:48:02;2.90;;;1.80;;
14698;SDS011;7439;50.804;4.602;2023-06-04T13:50:33;2.67;;;1.73;;
14698;SDS011;7439;50.804;4.602;2023-06-04T13:53:00;2.10;;;1.63;;
14698;SDS011;7439;50.804;4.602;2023-06-04T13:55:28;3.37;;;1.50;;
14698;SDS011;7439;50.804;4.602;2023-06-04T13:57:56;2.10;;;2.00;;
14698;SDS011;7439;50.804;4.602;2023-06-04T14:00:23;3.30;;;2.00;;
14698;SDS011;7439;50.804;4.602;2023-06-04T14:02:50;2.63;;;1.60;;
14698;SDS011;7439;50.804;4.602;2023-06-04T14:05:19;4.80;;;1.60;;
14698;SDS011;7439;50.804;4.602;2023-06-04T14:07:46;2.80;;;1.90;;
14698;SDS011;7439;50.804;4.602;2023-06-04T14:10:13;1.80;;;1.70;;
14698;SDS011;7439;50.804;4.602;2023-06-04T14:12:40;1.70;;;1.60;;
14698;SDS011;7439;50.804;4.602;2023-06-04T14:15:07;1.90;;;1.80;;
14698;SDS011;7439;50.804;4.602;2023-06-04T14:17:36;2.37;;;1.80;;
14698;SDS011;7439;50.804;4.602;2023-06-04T14:20:03;5.10;;;1.80;;
14698;SDS011;7439;50.804;4.602;2023-06-04T14:22:35;2.10;;;1.70;;
14698;SDS011;7439;50.804;4.602;2023-06-04T14:25:03;3.03;;;1.73;;
14698;SDS011;7439;50.804;4.602;2023-06-04T14:27:30;1.97;;;1.67;;
14698;SDS011;7439;50.804;4.602;2023-06-04T14:29:58;3.37;;;1.63;;
14698;SDS011;7439;50.804;4.602;2023-06-04T14:32:25;2.87;;;2.13;;
14698;SDS011;7439;50.804;4.602;2023-06-04T14:34:52;3.63;;;1.77;;
14698;SDS011;7439;50.804;4.602;2023-06-04T14:37:25;2.10;;;1.63;;
14698;SDS011;7439;50.804;4.602;2023-06-04T14:39:54;3.67;;;1.87;;
14698;SDS011;7439;50.804;4.602;2023-06-04T14:42:21;2.20;;;1.50;;
14698;SDS011;7439;50.804;4.602;2023-06-04T14:44:49;2.00;;;1.63;;
14698;SDS011;7439;50.804;4.602;2023-06-04T14:47:16;3.20;;;1.70;;
14698;SDS011;7439;50.804;4.602;2023-06-04T14:49:43;1.87;;;1.77;;
14698;SDS011;7439;50.804;4.602;2023-06-04T14:52:10;3.50;;;1.90;;
14698;SDS011;7439;50.804;4.602;2023-06-04T14:54:38;2.77;;;1.67;;
14698;SDS011;7439;50.804;4.602;2023-06-04T14:57:06;2.67;;;1.70;;
14698;SDS011;7439;50.804;4.602;2023-06-04T14:59:33;2.73;;;1.77;;
14698;SDS011;7439;50.804;4.602;2023-06-04T15:02:06;7.70;;;2.07;;
14698;SDS011;7439;50.804;4.602;2023-06-04T15:04:34;2.00;;;1.77;;
14698;SDS011;7439;50.804;4.602;2023-06-04T15:07:02;1.63;;;1.53;;